createdAt,value
2022-10-23T00:00:43.870Z,69.0
2022-10-23T00:03:24.514Z,69.0
2022-10-23T00:05:55.111Z,69.0
2022-10-23T00:08:25.703Z,69.0
2022-10-23T00:10:56.334Z,69.0
2022-10-23T00:13:26.920Z,68.0
2022-10-23T00:18:37.666Z,68.0
2022-10-23T00:21:08.439Z,68.0
2022-10-23T00:23:39.166Z,68.0
2022-10-23T00:26:09.738Z,68.0
2022-10-23T00:28:40.334Z,68.0
2022-10-23T00:31:20.924Z,68.0
2022-10-23T00:33:51.480Z,69.0
2022-10-23T00:36:22.079Z,69.0
2022-10-23T00:38:52.633Z,69.0
2022-10-23T00:41:23.229Z,68.0
2022-10-23T00:43:53.822Z,69.0
2022-10-23T00:46:34.422Z,69.0
2022-10-23T00:49:05.070Z,69.0
2022-10-23T00:51:35.703Z,69.0
2022-10-23T00:54:24.269Z,69.0
2022-10-23T00:59:15.485Z,68.0
2022-10-23T01:01:56.377Z,69.0
2022-10-23T01:04:27.333Z,69.0
2022-10-23T01:06:57.940Z,69.0
2022-10-23T01:09:28.522Z,69.0
2022-10-23T01:11:59.090Z,69.0
2022-10-23T01:14:29.666Z,69.0
2022-10-23T01:17:10.265Z,69.0
2022-10-23T01:19:40.865Z,69.0
2022-10-23T01:22:11.543Z,69.0
2022-10-23T01:24:42.253Z,69.0
2022-10-23T01:27:12.825Z,69.0
2022-10-23T01:29:53.425Z,69.0
2022-10-23T01:32:24.018Z,69.0
2022-10-23T01:34:54.623Z,69.0
2022-10-23T01:39:55.362Z,69.0
2022-10-23T01:42:25.933Z,69.0
2022-10-23T01:45:06.555Z,69.0
2022-10-23T01:47:37.150Z,69.0
2022-10-23T01:50:07.755Z,69.0
2022-10-23T01:52:38.334Z,69.0
2022-10-23T01:55:08.923Z,69.0
2022-10-23T01:57:39.688Z,69.0
2022-10-23T02:00:20.439Z,69.0
2022-10-23T02:02:51.016Z,69.0
2022-10-23T02:05:21.603Z,69.0
2022-10-23T02:07:52.502Z,69.0
2022-10-23T02:10:23.091Z,69.0
2022-10-23T02:12:53.673Z,69.0
2022-10-23T02:15:34.214Z,69.0
2022-10-23T02:20:34.944Z,69.0
2022-10-23T02:23:05.534Z,69.0
2022-10-23T02:25:36.107Z,69.0
2022-10-23T02:28:16.686Z,69.0
2022-10-23T02:30:47.297Z,69.0
2022-10-23T02:33:17.909Z,69.0
2022-10-23T02:35:48.501Z,69.0
2022-10-23T02:38:19.064Z,69.0
2022-10-23T02:40:49.651Z,69.0
2022-10-23T02:43:30.251Z,69.0
2022-10-23T02:46:00.881Z,69.0
2022-10-23T02:48:31.465Z,69.0
2022-10-23T02:51:02.063Z,69.0
2022-10-23T02:53:32.639Z,69.0
2022-10-23T02:56:03.266Z,69.0
2022-10-23T03:03:54.132Z,69.0
2022-10-23T03:06:24.723Z,69.0
2022-10-23T03:08:55.313Z,69.0
2022-10-23T03:11:25.898Z,69.0
2022-10-23T03:14:06.480Z,69.0
2022-10-23T03:16:37.074Z,69.0
2022-10-23T03:19:07.884Z,69.0
2022-10-23T03:21:38.527Z,69.0
2022-10-23T03:24:09.126Z,69.0
2022-10-23T03:26:39.704Z,69.0
2022-10-23T03:29:20.289Z,69.0
2022-10-23T03:31:50.896Z,69.0
2022-10-23T03:34:21.493Z,69.0
2022-10-23T03:36:52.077Z,69.0
2022-10-23T03:42:02.853Z,69.0
2022-10-23T03:44:33.469Z,69.0
2022-10-23T03:47:04.050Z,69.0
2022-10-23T03:49:34.624Z,69.0
2022-10-23T03:52:05.202Z,69.0
2022-10-23T03:54:35.892Z,69.0
2022-10-23T03:57:16.514Z,69.0
2022-10-23T03:59:47.098Z,69.0
2022-10-23T04:02:17.872Z,69.0
2022-10-23T04:04:48.738Z,69.0
2022-10-23T04:07:19.325Z,69.0
2022-10-23T04:09:49.948Z,69.0
2022-10-23T04:12:30.641Z,69.0
2022-10-23T04:15:01.645Z,69.0
2022-10-23T04:17:32.280Z,69.0
2022-10-23T04:22:36.261Z,70.0
2022-10-23T04:25:07.095Z,70.0
2022-10-23T04:27:47.677Z,70.0
2022-10-23T04:30:18.303Z,70.0
2022-10-23T04:32:48.849Z,70.0
2022-10-23T04:35:19.447Z,70.0
2022-10-23T04:37:50.196Z,70.0
2022-10-23T04:40:20.723Z,69.0
2022-10-23T04:43:01.315Z,70.0
2022-10-23T04:45:31.910Z,70.0
2022-10-23T04:48:02.484Z,70.0
2022-10-23T04:50:33.108Z,70.0
2022-10-23T04:53:03.750Z,70.0
2022-10-23T04:55:44.359Z,70.0
2022-10-23T04:58:14.946Z,70.0
2022-10-23T05:03:15.647Z,70.0
2022-10-23T05:05:46.240Z,70.0
2022-10-23T05:08:17.851Z,70.0
2022-10-23T05:10:58.908Z,70.0
2022-10-23T05:13:29.489Z,70.0
2022-10-23T05:16:00.112Z,70.0
2022-10-23T05:18:30.743Z,70.0
2022-10-23T05:21:01.328Z,70.0
2022-10-23T05:23:31.911Z,70.0
2022-10-23T05:26:12.497Z,70.0
2022-10-23T05:28:43.076Z,70.0
2022-10-23T05:31:13.688Z,70.0
2022-10-23T05:33:44.306Z,70.0
2022-10-23T05:36:14.884Z,70.0
2022-10-23T05:38:45.447Z,70.0
2022-10-23T05:43:56.185Z,70.0
2022-10-23T05:46:26.777Z,70.0
2022-10-23T05:48:57.453Z,70.0
2022-10-23T05:51:28.002Z,70.0
2022-10-23T05:54:08.566Z,70.0
2022-10-23T05:56:39.166Z,70.0
2022-10-23T05:59:09.726Z,70.0
2022-10-23T06:01:43.800Z,70.0
2022-10-23T06:04:14.614Z,70.0
2022-10-23T06:06:45.223Z,70.0
2022-10-23T06:09:25.834Z,70.0
2022-10-23T06:11:56.460Z,70.0
2022-10-23T06:14:27.046Z,70.0
2022-10-23T06:16:57.620Z,70.0
2022-10-23T06:19:28.201Z,70.0
2022-10-23T06:24:38.979Z,70.0
2022-10-23T06:27:09.563Z,70.0
2022-10-23T06:29:40.141Z,70.0
2022-10-23T06:32:10.728Z,70.0
2022-10-23T06:34:41.345Z,70.0
2022-10-23T06:37:21.960Z,70.0
2022-10-23T06:39:52.479Z,70.0
2022-10-23T06:42:23.065Z,70.0
2022-10-23T06:44:53.672Z,70.0
2022-10-23T06:47:26.943Z,70.0
2022-10-23T06:49:57.530Z,70.0
2022-10-23T06:52:57.205Z,70.0
2022-10-23T06:55:07.781Z,70.0
2022-10-23T06:57:38.347Z,70.0
2022-10-23T07:00:08.941Z,70.0
2022-10-23T07:05:11.281Z,70.0
2022-10-23T07:07:54.206Z,70.0
2022-10-23T07:10:24.811Z,70.0
2022-10-23T07:12:55.804Z,70.0
2022-10-23T07:15:26.381Z,70.0
2022-10-23T07:17:56.957Z,70.0
2022-10-23T07:20:27.544Z,70.0
2022-10-23T07:23:08.148Z,70.0
2022-10-23T07:25:38.730Z,69.0
2022-10-23T07:28:09.288Z,69.0
2022-10-23T07:30:39.856Z,69.0
2022-10-23T07:33:10.471Z,69.0
2022-10-23T07:35:44.485Z,70.0
2022-10-23T07:38:25.072Z,70.0
2022-10-23T07:40:55.697Z,70.0
2022-10-23T07:46:00.774Z,70.0
2022-10-23T07:48:31.368Z,70.0
2022-10-23T07:51:01.946Z,69.0
2022-10-23T07:53:42.863Z,69.0
2022-10-23T07:56:13.465Z,69.0
2022-10-23T07:58:44.063Z,69.0
2022-10-23T08:01:14.697Z,69.0
2022-10-23T08:03:45.331Z,69.0
2022-10-23T08:06:25.939Z,69.0
2022-10-23T08:08:56.540Z,69.0
2022-10-23T08:11:27.705Z,69.0
2022-10-23T08:13:58.279Z,69.0
2022-10-23T08:16:28.874Z,69.0
2022-10-23T08:18:59.447Z,69.0
2022-10-23T08:21:40.036Z,69.0
2022-10-23T08:26:40.782Z,68.0
2022-10-23T08:31:41.524Z,68.0
2022-10-23T08:34:12.147Z,68.0
2022-10-23T08:36:52.762Z,68.0
2022-10-23T08:39:23.338Z,68.0
2022-10-23T08:41:53.937Z,67.0
2022-10-23T08:44:24.639Z,67.0
2022-10-23T08:46:55.259Z,67.0
2022-10-23T08:49:25.842Z,67.0
2022-10-23T08:52:07.179Z,67.0
2022-10-23T08:54:39.748Z,67.0
2022-10-23T08:57:10.353Z,67.0
2022-10-23T08:59:40.945Z,67.0
2022-10-23T09:02:11.819Z,67.0
2022-10-23T09:07:22.831Z,66.0
2022-10-23T09:09:53.399Z,66.0
2022-10-23T09:12:24.002Z,66.0
2022-10-23T09:14:54.604Z,66.0
2022-10-23T09:17:25.184Z,65.0
2022-10-23T09:20:05.782Z,65.0
2022-10-23T09:22:36.401Z,65.0
2022-10-23T09:25:07.004Z,65.0
2022-10-23T09:27:37.592Z,65.0
2022-10-23T09:30:11.096Z,65.0
2022-10-23T09:32:41.688Z,64.0
2022-10-23T09:35:22.297Z,64.0
2022-10-23T09:37:53.240Z,64.0
2022-10-23T09:40:23.845Z,64.0
2022-10-23T09:42:54.477Z,64.0
2022-10-23T09:47:55.572Z,63.0
2022-10-23T09:50:36.177Z,63.0
2022-10-23T09:53:06.820Z,63.0
2022-10-23T09:55:37.417Z,63.0
2022-10-23T09:58:08.012Z,63.0
2022-10-23T10:00:38.643Z,63.0
2022-10-23T10:03:03.919Z,63.0
2022-10-23T10:05:44.513Z,62.0
2022-10-23T10:08:15.085Z,62.0
2022-10-23T10:10:45.685Z,62.0
2022-10-23T10:15:56.390Z,62.0
2022-10-23T10:18:36.973Z,61.0
2022-10-23T10:21:07.555Z,61.0
2022-10-23T10:23:38.127Z,61.0
2022-10-23T10:28:38.936Z,61.0
2022-10-23T10:31:09.509Z,61.0
2022-10-23T10:33:50.104Z,61.0
2022-10-23T10:36:20.726Z,61.0
2022-10-23T10:38:51.326Z,61.0
2022-10-23T10:41:21.918Z,60.0
2022-10-23T10:43:52.491Z,60.0
2022-10-23T10:46:23.119Z,60.0
2022-10-23T10:49:03.715Z,60.0
2022-10-23T10:51:34.272Z,60.0
2022-10-23T10:54:04.849Z,60.0
2022-10-23T10:56:35.443Z,60.0
2022-10-23T10:59:06.022Z,60.0
2022-10-23T11:01:46.964Z,60.0
2022-10-23T11:04:17.698Z,60.0
2022-10-23T11:09:30.060Z,60.0
2022-10-23T11:11:50.678Z,60.0
2022-10-23T11:14:21.249Z,59.0
2022-10-23T11:17:01.845Z,59.0
2022-10-23T11:19:32.434Z,59.0
2022-10-23T11:22:03.001Z,59.0
2022-10-23T11:24:33.587Z,59.0
2022-10-23T11:26:58.782Z,59.0
2022-10-23T11:29:29.349Z,59.0
2022-10-23T11:32:09.967Z,59.0
2022-10-23T11:34:40.568Z,59.0
2022-10-23T11:37:11.180Z,59.0
2022-10-23T11:39:51.844Z,59.0
2022-10-23T11:42:22.401Z,59.0
2022-10-23T11:44:52.985Z,59.0
2022-10-23T11:50:03.709Z,59.0
2022-10-23T11:52:36.142Z,59.0
2022-10-23T11:57:36.940Z,59.0
2022-10-23T12:00:07.550Z,59.0
2022-10-23T12:02:48.518Z,59.0
2022-10-23T12:05:09.802Z,59.0
2022-10-23T12:07:40.472Z,59.0
2022-10-23T12:10:11.330Z,59.0
2022-10-23T12:12:41.954Z,59.0
2022-10-23T12:15:32.578Z,59.0
2022-10-23T12:18:03.156Z,59.0
2022-10-23T12:20:33.750Z,59.0
2022-10-23T12:23:04.312Z,59.0
2022-10-23T12:25:34.915Z,59.0
2022-10-23T12:30:45.704Z,59.0
2022-10-23T12:33:16.356Z,59.0
2022-10-23T12:35:46.949Z,59.0
2022-10-23T12:38:17.530Z,59.0
2022-10-23T12:40:43.027Z,59.0
2022-10-23T12:43:13.606Z,59.0
2022-10-23T12:45:54.192Z,59.0
2022-10-23T12:48:24.777Z,59.0
2022-10-23T12:50:55.353Z,59.0
2022-10-23T12:53:25.924Z,59.0
2022-10-23T12:55:56.694Z,59.0
2022-10-23T12:58:27.325Z,59.0
2022-10-23T13:01:08.147Z,59.0
2022-10-23T13:03:38.959Z,59.0
2022-10-23T13:06:09.550Z,59.0
2022-10-23T13:11:10.327Z,59.0
2022-10-23T13:13:50.909Z,59.0
2022-10-23T13:16:21.474Z,59.0
2022-10-23T13:18:52.042Z,59.0
2022-10-23T13:21:22.640Z,59.0
2022-10-23T13:24:03.258Z,59.0
2022-10-23T13:26:33.868Z,59.0
2022-10-23T13:29:19.088Z,59.0
2022-10-23T13:31:39.712Z,59.0
2022-10-23T13:34:10.318Z,60.0
2022-10-23T13:36:40.919Z,60.0
2022-10-23T13:39:13.992Z,59.0
2022-10-23T13:41:44.564Z,59.0
2022-10-23T13:44:25.143Z,59.0
2022-10-23T13:46:55.755Z,59.0
2022-10-23T13:51:56.494Z,59.0
2022-10-23T13:56:58.797Z,59.0
2022-10-23T13:59:39.389Z,59.0
2022-10-23T14:02:10.243Z,59.0
2022-10-23T14:04:41.082Z,59.0
2022-10-23T14:07:11.662Z,59.0
2022-10-23T14:09:42.246Z,60.0
2022-10-23T14:12:22.867Z,60.0
2022-10-23T14:14:53.451Z,59.0
2022-10-23T14:17:24.020Z,59.0
2022-10-23T14:19:54.612Z,59.0
2022-10-23T14:22:26.787Z,59.0
2022-10-23T14:24:57.384Z,59.0
2022-10-23T14:27:38.006Z,59.0
2022-10-23T14:32:38.784Z,59.0
2022-10-23T14:35:09.376Z,59.0
2022-10-23T14:37:39.957Z,59.0
2022-10-23T14:40:10.552Z,59.0
2022-10-23T14:42:51.259Z,59.0
2022-10-23T14:45:21.868Z,59.0
2022-10-23T14:47:52.886Z,59.0
2022-10-23T14:50:23.468Z,59.0
2022-10-23T14:52:54.054Z,59.0
2022-10-23T14:55:24.751Z,59.0
2022-10-23T14:58:05.354Z,59.0
2022-10-23T15:00:35.973Z,59.0
2022-10-23T15:03:06.562Z,60.0
2022-10-23T15:05:37.142Z,60.0
2022-10-23T15:08:07.689Z,60.0
2022-10-23T15:13:18.419Z,60.0
2022-10-23T15:15:48.992Z,60.0
2022-10-23T15:18:19.566Z,60.0
2022-10-23T15:20:50.244Z,60.0
2022-10-23T15:23:20.834Z,60.0
2022-10-23T15:26:01.584Z,60.0
2022-10-23T15:28:32.165Z,60.0
2022-10-23T15:31:02.744Z,61.0
2022-10-23T15:33:33.307Z,61.0
2022-10-23T15:36:03.903Z,61.0
2022-10-23T15:38:44.470Z,61.0
2022-10-23T15:41:25.079Z,61.0
2022-10-23T15:43:55.680Z,61.0
2022-10-23T15:46:26.287Z,61.0
2022-10-23T15:48:56.880Z,61.0
2022-10-23T15:53:57.584Z,61.0
2022-10-23T15:56:38.243Z,61.0
2022-10-23T15:59:08.844Z,61.0
2022-10-23T16:01:39.644Z,61.0
2022-10-23T16:04:10.420Z,61.0
2022-10-23T16:06:41.012Z,61.0
2022-10-23T16:09:11.600Z,62.0
2022-10-23T16:14:22.354Z,62.0
2022-10-23T16:16:52.937Z,62.0
2022-10-23T16:19:23.563Z,62.0
2022-10-23T16:21:54.158Z,62.0
2022-10-23T16:24:24.739Z,62.0
2022-10-23T16:27:05.358Z,62.0
2022-10-23T16:29:35.934Z,62.0
2022-10-23T16:34:36.694Z,62.0
2022-10-23T16:37:07.293Z,62.0
2022-10-23T16:39:47.880Z,62.0
2022-10-23T16:44:49.154Z,62.0
2022-10-23T16:47:19.747Z,62.0
2022-10-23T16:49:50.350Z,62.0
2022-10-23T16:52:20.918Z,62.0
2022-10-23T16:55:01.498Z,62.0
2022-10-23T16:57:32.089Z,62.0
2022-10-23T17:00:02.682Z,62.0
2022-10-23T17:02:33.635Z,62.0
2022-10-23T17:05:04.775Z,62.0
2022-10-23T17:07:35.348Z,62.0
2022-10-23T17:10:16.307Z,62.0
2022-10-23T17:15:17.042Z,63.0
2022-10-23T17:17:47.757Z,63.0
2022-10-23T17:20:18.350Z,63.0
2022-10-23T17:22:48.939Z,63.0
2022-10-23T17:25:29.537Z,63.0
2022-10-23T17:28:00.103Z,63.0
2022-10-23T17:30:30.696Z,63.0
2022-10-23T17:33:01.906Z,63.0
2022-10-23T17:35:32.718Z,63.0
2022-10-23T17:38:03.282Z,63.0
2022-10-23T17:43:14.457Z,63.0
2022-10-23T17:45:45.026Z,63.0
2022-10-23T17:48:15.617Z,63.0
2022-10-23T17:50:46.222Z,63.0
2022-10-23T17:55:56.973Z,63.0
2022-10-23T17:58:27.536Z,63.0
2022-10-23T18:00:58.149Z,63.0
2022-10-23T18:03:30.204Z,63.0
2022-10-23T18:06:00.784Z,63.0
2022-10-23T18:08:41.373Z,63.0
2022-10-23T18:11:11.981Z,63.0
2022-10-23T18:13:42.577Z,63.0
2022-10-23T18:16:13.213Z,63.0
2022-10-23T18:18:43.784Z,63.0
2022-10-23T18:21:14.367Z,63.0
2022-10-23T18:24:04.991Z,63.0
2022-10-23T18:26:35.617Z,63.0
2022-10-23T18:29:06.198Z,63.0
2022-10-23T18:31:36.793Z,63.0
2022-10-23T18:36:37.540Z,63.0
2022-10-23T18:39:18.190Z,63.0
2022-10-23T18:41:48.778Z,62.0
2022-10-23T18:44:19.351Z,62.0
2022-10-23T18:46:49.938Z,62.0
2022-10-23T18:49:20.506Z,62.0
2022-10-23T18:51:51.112Z,62.0
2022-10-23T18:54:31.839Z,62.0
2022-10-23T18:57:02.422Z,62.0
2022-10-23T18:59:33.015Z,62.0
2022-10-23T19:02:03.946Z,62.0
2022-10-23T19:04:35.653Z,62.0
2022-10-23T19:07:17.063Z,62.0
2022-10-23T19:09:47.686Z,62.0
2022-10-23T19:12:18.416Z,62.0
2022-10-23T19:17:19.130Z,62.0
2022-10-23T19:19:49.691Z,62.0
2022-10-23T19:22:30.286Z,62.0
2022-10-23T19:25:00.888Z,62.0
2022-10-23T19:27:31.486Z,62.0
2022-10-23T19:30:02.070Z,62.0
2022-10-23T19:32:32.634Z,62.0
2022-10-23T19:35:03.605Z,62.0
2022-10-23T19:37:44.380Z,62.0
2022-10-23T19:40:15.299Z,62.0
2022-10-23T19:42:45.847Z,62.0
2022-10-23T19:45:16.440Z,63.0
2022-10-23T19:47:47.312Z,62.0
2022-10-23T19:50:17.991Z,63.0
2022-10-23T19:52:58.585Z,63.0
2022-10-23T19:57:59.332Z,63.0
2022-10-23T20:00:29.953Z,63.0
2022-10-23T20:03:04.581Z,63.0
2022-10-23T20:05:35.160Z,63.0
2022-10-23T20:08:15.731Z,63.0
2022-10-23T20:10:46.567Z,63.0
2022-10-23T20:13:30.023Z,63.0
2022-10-23T20:15:40.583Z,63.0
2022-10-23T20:18:11.140Z,63.0
2022-10-23T20:20:51.734Z,63.0
2022-10-23T20:23:22.304Z,63.0
2022-10-23T20:25:52.911Z,63.0
2022-10-23T20:28:25.500Z,63.0
2022-10-23T20:30:56.118Z,63.0
2022-10-23T20:33:26.707Z,63.0
2022-10-23T20:38:37.436Z,63.0
2022-10-23T20:41:08.030Z,63.0
2022-10-23T20:43:38.608Z,63.0
2022-10-23T20:46:09.206Z,63.0
2022-10-23T20:48:39.791Z,63.0
2022-10-23T20:51:20.434Z,63.0
2022-10-23T20:53:51.011Z,63.0
2022-10-23T20:56:31.622Z,63.0
2022-10-23T20:59:02.204Z,63.0
2022-10-23T21:04:02.938Z,63.0
2022-10-23T21:07:09.762Z,63.0
2022-10-23T21:11:41.564Z,63.0
2022-10-23T21:14:12.160Z,63.0
2022-10-23T21:19:22.872Z,63.0
2022-10-23T21:21:53.447Z,63.0
2022-10-23T21:24:24.054Z,63.0
2022-10-23T21:26:54.702Z,63.0
2022-10-23T21:29:29.187Z,63.0
2022-10-23T21:31:59.774Z,63.0
2022-10-23T21:34:40.366Z,63.0
2022-10-23T21:37:22.732Z,63.0
2022-10-23T21:39:43.363Z,63.0
2022-10-23T21:42:13.983Z,63.0
2022-10-23T21:44:44.646Z,63.0
2022-10-23T21:47:15.238Z,63.0
2022-10-23T21:49:55.818Z,63.0
2022-10-23T21:52:29.865Z,63.0
2022-10-23T21:54:50.437Z,63.0
2022-10-23T22:00:01.201Z,63.0
2022-10-23T22:02:32.190Z,63.0
2022-10-23T22:05:03.415Z,63.0
2022-10-23T22:07:34.033Z,63.0
2022-10-23T22:10:04.948Z,63.0
2022-10-23T22:12:35.640Z,63.0
2022-10-23T22:15:06.254Z,63.0
2022-10-23T22:17:36.849Z,63.0
2022-10-23T22:20:17.753Z,63.0
2022-10-23T22:22:48.330Z,63.0
2022-10-23T22:25:28.975Z,63.0
2022-10-23T22:28:00.006Z,63.0
2022-10-23T22:30:30.588Z,63.0
2022-10-23T22:33:01.168Z,63.0
2022-10-23T22:35:41.782Z,63.0
2022-10-23T22:40:46.432Z,63.0
2022-10-23T22:43:07.188Z,63.0
2022-10-23T22:45:37.768Z,63.0
2022-10-23T22:48:18.350Z,63.0
2022-10-23T22:50:48.961Z,63.0
2022-10-23T22:53:19.554Z,64.0
2022-10-23T22:55:50.147Z,63.0
2022-10-23T22:58:20.739Z,64.0
2022-10-23T23:00:53.822Z,64.0
2022-10-23T23:03:34.658Z,64.0
2022-10-23T23:06:05.285Z,64.0
2022-10-23T23:08:35.840Z,64.0
2022-10-23T23:11:06.690Z,63.0
2022-10-23T23:13:37.277Z,64.0
2022-10-23T23:16:07.860Z,63.0
2022-10-23T23:21:18.589Z,63.0
2022-10-23T23:23:49.178Z,63.0
2022-10-23T23:26:19.784Z,63.0
2022-10-23T23:28:50.367Z,63.0
2022-10-23T23:31:20.937Z,63.0
2022-10-23T23:34:01.524Z,62.0
2022-10-23T23:36:32.108Z,62.0
2022-10-23T23:41:33.348Z,62.0
2022-10-23T23:44:03.931Z,62.0
2022-10-23T23:46:44.491Z,62.0
2022-10-23T23:49:15.099Z,62.0
2022-10-23T23:51:45.692Z,62.0
2022-10-23T23:54:16.251Z,62.0
2022-10-23T23:56:46.865Z,62.0
